createdAt,value
2018-11-27T00:00:06.473Z,101366.47
2018-11-27T00:01:11.957Z,101371.50
2018-11-27T00:02:17.424Z,101371.48
2018-11-27T00:03:22.977Z,101368.95
2018-11-27T00:04:28.500Z,101367.30
2018-11-27T00:05:35.376Z,101366.06
2018-11-27T00:06:40.865Z,101373.20
2018-11-27T00:07:46.431Z,101368.60
2018-11-27T00:08:51.966Z,101371.56
2018-11-27T00:09:57.448Z,101371.12
2018-11-27T00:11:03.022Z,101365.20
2018-11-27T00:12:08.588Z,101366.00
2018-11-27T00:13:14.080Z,101368.58
2018-11-27T00:14:19.825Z,101368.97
2018-11-27T00:15:25.386Z,101373.23
2018-11-27T00:16:30.962Z,101366.48
2018-11-27T00:17:36.460Z,101367.59
2018-11-27T00:18:42.179Z,101371.94
2018-11-27T00:19:47.725Z,101366.41
2018-11-27T00:20:53.246Z,101371.05
2018-11-27T00:21:58.712Z,101371.50
2018-11-27T00:23:04.307Z,101373.61
2018-11-27T00:24:09.793Z,101374.88
2018-11-27T00:25:17.063Z,101374.48
2018-11-27T00:26:22.580Z,101378.77
2018-11-27T00:27:28.108Z,101371.16
2018-11-27T00:28:33.600Z,101377.99
2018-11-27T00:29:39.126Z,101372.92
2018-11-27T00:30:44.635Z,101375.41
2018-11-27T00:31:50.120Z,101377.95
2018-11-27T00:32:55.585Z,101377.56
2018-11-27T00:34:01.219Z,101379.28
2018-11-27T00:35:09.762Z,101374.19
2018-11-27T00:36:15.304Z,101371.67
2018-11-27T00:37:20.800Z,101375.07
2018-11-27T00:38:26.340Z,101377.19
2018-11-27T00:39:31.891Z,101368.30
2018-11-27T00:40:37.435Z,101372.91
2018-11-27T00:41:43.700Z,101367.86
2018-11-27T00:42:49.403Z,101369.98
2018-11-27T00:43:54.926Z,101370.01
2018-11-27T00:45:00.415Z,101368.73
2018-11-27T00:46:06.144Z,101369.98
2018-11-27T00:47:11.604Z,101373.70
2018-11-27T00:48:17.228Z,101374.97
2018-11-27T00:49:22.675Z,101371.59
2018-11-27T00:50:28.328Z,101377.12
2018-11-27T00:51:33.859Z,101377.12
2018-11-27T00:52:40.115Z,101375.87
2018-11-27T00:53:45.641Z,101377.14
2018-11-27T00:54:51.125Z,101375.01
2018-11-27T00:55:56.816Z,101375.38
2018-11-27T00:57:02.303Z,101382.19
2018-11-27T00:58:08.597Z,101372.45
2018-11-27T00:59:14.161Z,101375.83
2018-11-27T01:00:23.252Z,101371.67
2018-11-27T01:01:28.787Z,101375.41
2018-11-27T01:02:34.363Z,101377.94
2018-11-27T01:03:39.895Z,101376.66
2018-11-27T01:04:45.420Z,101378.36
2018-11-27T01:05:50.971Z,101379.17
2018-11-27T01:06:56.481Z,101379.67
2018-11-27T01:08:02.021Z,101377.13
2018-11-27T01:09:09.801Z,101377.91
2018-11-27T01:10:23.380Z,101373.31
2018-11-27T01:11:28.910Z,101374.12
2018-11-27T01:12:34.447Z,101378.36
2018-11-27T01:13:40.083Z,101376.22
2018-11-27T01:14:45.750Z,101375.38
2018-11-27T01:15:51.243Z,101377.50
2018-11-27T01:16:56.806Z,101375.78
2018-11-27T01:18:02.283Z,101380.84
2018-11-27T01:19:07.941Z,101376.64
2018-11-27T01:20:16.160Z,101375.38
2018-11-27T01:21:21.648Z,101387.20
2018-11-27T01:22:27.193Z,101385.45
2018-11-27T01:23:32.718Z,101383.86
2018-11-27T01:24:38.203Z,101390.25
2018-11-27T01:25:43.909Z,101389.80
2018-11-27T01:26:49.479Z,101383.52
2018-11-27T01:27:55.020Z,101385.22
2018-11-27T01:29:00.591Z,101386.85
2018-11-27T01:30:09.839Z,101382.66
2018-11-27T01:31:15.323Z,101383.09
2018-11-27T01:32:20.838Z,101384.36
2018-11-27T01:33:26.563Z,101382.20
2018-11-27T01:34:32.029Z,101383.91
2018-11-27T01:35:37.496Z,101382.20
2018-11-27T01:36:43.057Z,101390.23
2018-11-27T01:37:50.042Z,101391.07
2018-11-27T01:38:56.068Z,101394.04
2018-11-27T01:40:01.578Z,101394.96
2018-11-27T01:41:07.724Z,101389.91
2018-11-27T01:42:13.133Z,101395.38
2018-11-27T01:43:18.788Z,101392.77
2018-11-27T01:44:24.374Z,101385.97
2018-11-27T01:45:29.943Z,101390.63
2018-11-27T01:46:35.433Z,101389.78
2018-11-27T01:47:41.103Z,101388.12
2018-11-27T01:48:46.807Z,101390.70
2018-11-27T01:49:52.274Z,101389.80
2018-11-27T01:50:57.982Z,101388.53
2018-11-27T01:52:03.521Z,101389.35
2018-11-27T01:53:08.928Z,101387.66
2018-11-27T01:54:14.476Z,101383.47
2018-11-27T01:55:22.435Z,101386.45
2018-11-27T01:56:27.875Z,101385.23
2018-11-27T01:57:33.379Z,101388.62
2018-11-27T01:58:38.935Z,101392.84
2018-11-27T01:59:44.378Z,101395.38
2018-11-27T02:00:49.841Z,101388.63
2018-11-27T02:01:55.275Z,101391.17
2018-11-27T02:03:01.888Z,101393.70
2018-11-27T02:04:07.831Z,101397.09
2018-11-27T02:05:13.371Z,101391.22
2018-11-27T02:06:18.799Z,101398.38
2018-11-27T02:07:24.238Z,101400.55
2018-11-27T02:08:29.808Z,101396.68
2018-11-27T02:09:35.292Z,101396.66
2018-11-27T02:10:40.731Z,101391.95
2018-11-27T02:11:46.184Z,101397.91
2018-11-27T02:12:53.209Z,101395.80
2018-11-27T02:13:58.719Z,101394.97
2018-11-27T02:15:04.295Z,101393.71
2018-11-27T02:16:09.836Z,101389.88
2018-11-27T02:17:15.261Z,101393.71
2018-11-27T02:18:20.873Z,101396.29
2018-11-27T02:19:26.303Z,101394.18
2018-11-27T02:20:31.840Z,101395.47
2018-11-27T02:21:37.406Z,101393.32
2018-11-27T02:22:43.159Z,101395.00
2018-11-27T02:23:48.872Z,101396.23
2018-11-27T02:24:54.320Z,101392.03
2018-11-27T02:25:59.864Z,101396.17
2018-11-27T02:27:05.717Z,101394.49
2018-11-27T02:28:11.150Z,101400.89
2018-11-27T02:29:16.751Z,101398.78
2018-11-27T02:30:23.777Z,101406.38
2018-11-27T02:31:29.311Z,101401.73
2018-11-27T02:32:34.786Z,101402.19
2018-11-27T02:33:40.522Z,101405.17
2018-11-27T02:34:46.272Z,101402.59
2018-11-27T02:35:51.714Z,101401.31
2018-11-27T02:36:57.236Z,101405.95
2018-11-27T02:38:02.809Z,101402.59
2018-11-27T02:39:08.657Z,101401.34
2018-11-27T02:40:18.753Z,101403.01
2018-11-27T02:41:24.409Z,101408.08
2018-11-27T02:42:30.048Z,101400.88
2018-11-27T02:43:35.565Z,101403.41
2018-11-27T02:44:41.083Z,101400.89
2018-11-27T02:45:46.601Z,101401.34
2018-11-27T02:46:52.032Z,101400.95
2018-11-27T02:47:57.589Z,101400.92
2018-11-27T02:49:03.116Z,101408.92
2018-11-27T02:50:11.111Z,101405.11
2018-11-27T02:51:16.702Z,101416.59
2018-11-27T02:52:22.187Z,101410.70
2018-11-27T02:53:27.674Z,101414.49
2018-11-27T02:54:33.182Z,101414.02
2018-11-27T02:55:38.780Z,101414.45
2018-11-27T02:56:44.392Z,101417.00
2018-11-27T02:57:49.919Z,101412.72
2018-11-27T02:58:55.482Z,101414.40
2018-11-27T03:00:00.924Z,101419.91
2018-11-27T03:01:06.749Z,101421.23
2018-11-27T03:02:12.357Z,101412.70
2018-11-27T03:03:17.908Z,101422.42
2018-11-27T03:04:23.521Z,101422.42
2018-11-27T03:05:33.280Z,101419.87
2018-11-27T03:06:38.748Z,101422.03
2018-11-27T03:07:44.333Z,101424.51
2018-11-27T03:08:49.856Z,101424.53
2018-11-27T03:09:55.441Z,101424.14
2018-11-27T03:11:00.904Z,101426.25
2018-11-27T03:12:06.583Z,101428.83
2018-11-27T03:13:12.340Z,101419.89
2018-11-27T03:14:17.866Z,101421.56
2018-11-27T03:15:23.429Z,101424.95
2018-11-27T03:16:28.859Z,101421.18
2018-11-27T03:17:34.385Z,101423.72
2018-11-27T03:18:40.181Z,101424.16
2018-11-27T03:19:45.647Z,101423.31
2018-11-27T03:20:51.091Z,101425.87
2018-11-27T03:21:56.556Z,101426.73
2018-11-27T03:23:02.143Z,101425.41
2018-11-27T03:24:07.854Z,101424.13
2018-11-27T03:25:16.913Z,101425.41
2018-11-27T03:26:22.541Z,101426.21
2018-11-27T03:27:28.046Z,101422.88
2018-11-27T03:28:33.567Z,101422.40
2018-11-27T03:29:39.194Z,101422.41
2018-11-27T03:30:44.658Z,101419.03
2018-11-27T03:31:50.117Z,101421.61
2018-11-27T03:32:55.674Z,101418.98
2018-11-27T03:34:01.092Z,101427.47
2018-11-27T03:35:08.732Z,101424.08
2018-11-27T03:36:14.243Z,101422.83
2018-11-27T03:37:19.767Z,101421.95
2018-11-27T03:38:25.231Z,101416.47
2018-11-27T03:39:30.849Z,101419.78
2018-11-27T03:40:36.415Z,101419.32
2018-11-27T03:41:41.920Z,101420.57
2018-11-27T03:42:47.503Z,101423.59
2018-11-27T03:43:53.046Z,101430.41
2018-11-27T03:44:58.549Z,101423.56
2018-11-27T03:46:04.132Z,101422.31
2018-11-27T03:47:09.631Z,101429.05
2018-11-27T03:48:15.063Z,101432.88
2018-11-27T03:49:20.689Z,101424.02
2018-11-27T03:50:30.037Z,101429.02
2018-11-27T03:51:35.780Z,101428.53
2018-11-27T03:52:41.265Z,101428.48
2018-11-27T03:53:46.836Z,101424.73
2018-11-27T03:54:52.313Z,101431.47
2018-11-27T03:55:57.843Z,101434.06
2018-11-27T03:57:03.413Z,101434.91
2018-11-27T03:58:08.993Z,101436.13
2018-11-27T03:59:14.676Z,101435.72
2018-11-27T04:00:28.323Z,101438.71
2018-11-27T04:01:33.845Z,101441.25
2018-11-27T04:02:39.524Z,101433.23
2018-11-27T04:03:45.065Z,101438.28
2018-11-27T04:04:50.639Z,101440.34
2018-11-27T04:05:56.144Z,101441.22
2018-11-27T04:07:01.675Z,101433.98
2018-11-27T04:08:09.295Z,101434.78
2018-11-27T04:09:14.876Z,101436.52
2018-11-27T04:10:21.191Z,101441.20
2018-11-27T04:11:26.616Z,101438.64
2018-11-27T04:12:32.043Z,101441.13
2018-11-27T04:13:37.489Z,101437.77
2018-11-27T04:14:42.951Z,101439.95
2018-11-27T04:15:48.427Z,101440.80
2018-11-27T04:16:54.303Z,101439.92
2018-11-27T04:17:59.766Z,101438.20
2018-11-27T04:19:05.562Z,101444.55
2018-11-27T04:20:12.418Z,101446.25
2018-11-27T04:21:17.941Z,101440.75
2018-11-27T04:22:23.513Z,101448.38
2018-11-27T04:23:29.062Z,101440.33
2018-11-27T04:24:34.543Z,101448.36
2018-11-27T04:25:40.135Z,101447.09
2018-11-27T04:26:45.568Z,101448.42
2018-11-27T04:27:51.119Z,101451.70
2018-11-27T04:28:56.583Z,101449.60
2018-11-27T04:30:02.014Z,101447.47
2018-11-27T04:31:07.512Z,101448.34
2018-11-27T04:32:13.053Z,101456.38
2018-11-27T04:33:18.544Z,101451.70
2018-11-27T04:34:24.007Z,101451.23
2018-11-27T04:35:29.494Z,101456.73
2018-11-27T04:36:34.995Z,101455.48
2018-11-27T04:37:40.572Z,101453.35
2018-11-27T04:38:46.095Z,101452.90
2018-11-27T04:39:51.620Z,101451.63
2018-11-27T04:40:57.159Z,101456.69
2018-11-27T04:42:02.704Z,101454.92
2018-11-27T04:43:08.339Z,101452.38
2018-11-27T04:44:13.813Z,101453.17
2018-11-27T04:45:24.341Z,101457.02
2018-11-27T04:46:29.902Z,101454.00
2018-11-27T04:47:35.442Z,101454.00
2018-11-27T04:48:41.030Z,101458.52
2018-11-27T04:49:46.632Z,101456.07
2018-11-27T04:50:52.032Z,101455.62
2018-11-27T04:51:57.652Z,101462.41
2018-11-27T04:53:03.138Z,101460.73
2018-11-27T04:54:08.581Z,101468.38
2018-11-27T04:55:16.538Z,101459.86
2018-11-27T04:56:22.051Z,101461.16
2018-11-27T04:57:27.585Z,101464.98
2018-11-27T04:58:33.101Z,101469.23
2018-11-27T04:59:38.575Z,101467.90
2018-11-27T05:00:44.149Z,101471.23
2018-11-27T05:01:49.673Z,101473.81
2018-11-27T05:02:55.199Z,101468.73
2018-11-27T05:04:00.734Z,101469.62
2018-11-27T05:05:07.205Z,101475.95
2018-11-27T05:06:12.812Z,101480.52
2018-11-27T05:07:18.384Z,101478.41
2018-11-27T05:08:23.981Z,101481.35
2018-11-27T05:09:29.520Z,101484.31
2018-11-27T05:10:35.038Z,101489.83
2018-11-27T05:11:40.528Z,101488.53
2018-11-27T05:12:46.140Z,101485.55
2018-11-27T05:13:51.700Z,101486.33
2018-11-27T05:14:58.893Z,101488.86
2018-11-27T05:16:04.972Z,101488.04
2018-11-27T05:17:10.403Z,101490.55
2018-11-27T05:18:16.048Z,101489.81
2018-11-27T05:19:21.600Z,101488.54
2018-11-27T05:20:27.133Z,101494.86
2018-11-27T05:21:32.908Z,101490.25
2018-11-27T05:22:38.736Z,101491.47
2018-11-27T05:23:44.421Z,101493.63
2018-11-27T05:24:49.916Z,101490.67
2018-11-27T05:25:55.831Z,101495.59
2018-11-27T05:27:01.355Z,101494.72
2018-11-27T05:28:07.111Z,101498.53
2018-11-27T05:29:12.592Z,101495.97
2018-11-27T05:30:26.897Z,101499.41
2018-11-27T05:31:32.555Z,101503.18
2018-11-27T05:32:37.969Z,101501.88
2018-11-27T05:33:43.461Z,101505.19
2018-11-27T05:34:48.883Z,101504.79
2018-11-27T05:35:54.364Z,101500.94
2018-11-27T05:36:59.792Z,101511.45
2018-11-27T05:38:05.467Z,101496.19
2018-11-27T05:39:11.017Z,101499.05
2018-11-27T05:40:24.285Z,101500.42
2018-11-27T05:41:29.784Z,101503.27
2018-11-27T05:42:35.272Z,101507.88
2018-11-27T05:43:46.057Z,101505.27
2018-11-27T05:44:46.239Z,101506.98
2018-11-27T05:45:51.796Z,101511.13
2018-11-27T05:46:57.358Z,101511.58
2018-11-27T05:48:02.805Z,101514.53
2018-11-27T05:49:08.327Z,101511.47
2018-11-27T05:50:15.507Z,101511.52
2018-11-27T05:51:21.112Z,101510.39
2018-11-27T05:52:26.613Z,101511.66
2018-11-27T05:53:32.252Z,101506.20
2018-11-27T05:54:37.883Z,101511.18
2018-11-27T05:55:43.303Z,101516.20
2018-11-27T05:56:48.928Z,101522.95
2018-11-27T05:57:56.317Z,101517.85
2018-11-27T05:59:01.845Z,101523.40
2018-11-27T06:00:16.233Z,101521.71
2018-11-27T06:01:21.762Z,101520.05
2018-11-27T06:02:27.433Z,101523.88
2018-11-27T06:03:32.963Z,101518.36
2018-11-27T06:04:38.491Z,101520.89
2018-11-27T06:05:44.027Z,101525.79
2018-11-27T06:06:49.494Z,101526.16
2018-11-27T06:07:55.075Z,101523.59
2018-11-27T06:09:00.561Z,101526.95
2018-11-27T06:10:06.591Z,101518.95
2018-11-27T06:11:12.032Z,101527.79
2018-11-27T06:12:17.461Z,101519.77
2018-11-27T06:13:23.176Z,101524.38
2018-11-27T06:14:28.753Z,101521.39
2018-11-27T06:15:34.180Z,101525.64
2018-11-27T06:16:39.782Z,101529.02
2018-11-27T06:17:45.941Z,101524.80
2018-11-27T06:18:51.500Z,101535.36
2018-11-27T06:19:57.100Z,101533.09
2018-11-27T06:21:02.728Z,101538.59
2018-11-27T06:22:08.267Z,101538.22
2018-11-27T06:23:13.740Z,101540.00
2018-11-27T06:24:19.268Z,101543.47
2018-11-27T06:25:26.621Z,101538.70
2018-11-27T06:26:32.082Z,101546.30
2018-11-27T06:27:37.595Z,101544.38
2018-11-27T06:28:43.172Z,101544.98
2018-11-27T06:29:48.621Z,101544.98
2018-11-27T06:30:54.069Z,101547.33
2018-11-27T06:31:59.620Z,101547.78
2018-11-27T06:33:05.531Z,101547.66
2018-11-27T06:34:10.963Z,101547.72
2018-11-27T06:35:19.663Z,101551.16
2018-11-27T06:36:25.081Z,101551.16
2018-11-27T06:37:30.511Z,101546.94
2018-11-27T06:38:36.235Z,101548.50
2018-11-27T06:39:41.687Z,101552.63
2018-11-27T06:40:47.409Z,101553.83
2018-11-27T06:41:52.965Z,101556.42
2018-11-27T06:42:58.508Z,101551.81
2018-11-27T06:44:04.232Z,101553.95
2018-11-27T06:45:18.931Z,101549.25
2018-11-27T06:46:24.508Z,101549.77
2018-11-27T06:47:30.037Z,101554.80
2018-11-27T06:48:35.552Z,101558.20
2018-11-27T06:49:41.071Z,101551.09
2018-11-27T06:50:46.616Z,101554.56
2018-11-27T06:51:52.092Z,101561.70
2018-11-27T06:52:57.722Z,101557.88
2018-11-27T06:54:03.342Z,101563.33
2018-11-27T06:55:11.842Z,101564.17
2018-11-27T06:56:17.401Z,101569.24
2018-11-27T06:57:23.002Z,101570.87
2018-11-27T06:58:28.708Z,101571.74
2018-11-27T06:59:34.371Z,101573.33
2018-11-27T07:00:39.960Z,101582.13
2018-11-27T07:01:45.458Z,101580.99
2018-11-27T07:02:50.959Z,101579.73
2018-11-27T07:03:56.399Z,101580.12
2018-11-27T07:05:01.919Z,101588.11
2018-11-27T07:06:07.420Z,101587.52
2018-11-27T07:07:12.944Z,101590.02
2018-11-27T07:08:18.451Z,101584.81
2018-11-27T07:09:23.903Z,101584.47
2018-11-27T07:10:31.516Z,101584.11
2018-11-27T07:11:36.942Z,101589.59
2018-11-27T07:12:42.392Z,101588.30
2018-11-27T07:13:47.924Z,101581.09
2018-11-27T07:14:53.360Z,101586.89
2018-11-27T07:15:58.850Z,101582.08
2018-11-27T07:17:04.386Z,101581.73
2018-11-27T07:18:10.409Z,101590.59
2018-11-27T07:19:15.961Z,101589.32
2018-11-27T07:20:21.472Z,101593.83
2018-11-27T07:21:26.972Z,101600.95
2018-11-27T07:22:32.500Z,101595.86
2018-11-27T07:23:37.988Z,101595.02
2018-11-27T07:24:43.580Z,101605.22
2018-11-27T07:25:49.132Z,101608.20
2018-11-27T07:26:54.584Z,101607.39
2018-11-27T07:28:00.039Z,101605.21
2018-11-27T07:29:05.641Z,101609.01
2018-11-27T07:30:26.931Z,101612.73
2018-11-27T07:31:32.639Z,101607.70
2018-11-27T07:32:38.112Z,101617.44
2018-11-27T07:33:43.587Z,101616.95
2018-11-27T07:34:49.075Z,101618.52
2018-11-27T07:35:54.603Z,101620.11
2018-11-27T07:37:00.192Z,101615.05
2018-11-27T07:38:06.308Z,101620.67
2018-11-27T07:39:11.763Z,101615.61
2018-11-27T07:40:25.140Z,101620.36
2018-11-27T07:41:30.773Z,101622.39
2018-11-27T07:42:36.280Z,101622.39
2018-11-27T07:43:41.957Z,101626.58
2018-11-27T07:44:47.468Z,101617.79
2018-11-27T07:45:55.153Z,101621.16
2018-11-27T07:46:58.520Z,101622.92
2018-11-27T07:48:04.055Z,101623.80
2018-11-27T07:49:09.632Z,101633.40
2018-11-27T07:50:16.211Z,101630.86
2018-11-27T07:51:21.770Z,101627.42
2018-11-27T07:52:27.295Z,101629.18
2018-11-27T07:53:32.855Z,101624.96
2018-11-27T07:54:38.355Z,101631.36
2018-11-27T07:55:43.904Z,101633.50
2018-11-27T07:56:49.382Z,101630.91
2018-11-27T07:57:55.843Z,101628.34
2018-11-27T07:59:01.429Z,101634.45
2018-11-27T08:00:13.036Z,101639.61
2018-11-27T08:01:18.632Z,101639.92
2018-11-27T08:02:24.267Z,101638.77
2018-11-27T08:03:29.823Z,101640.53
2018-11-27T08:04:35.332Z,101644.78
2018-11-27T08:05:42.004Z,101642.95
2018-11-27T08:06:47.543Z,101639.58
2018-11-27T08:07:54.858Z,101642.18
2018-11-27T08:09:00.320Z,101646.40
2018-11-27T08:10:11.914Z,101641.83
2018-11-27T08:11:17.408Z,101643.52
2018-11-27T08:12:22.959Z,101649.42
2018-11-27T08:13:28.607Z,101652.88
2018-11-27T08:14:34.099Z,101654.63
2018-11-27T08:15:39.635Z,101653.25
2018-11-27T08:16:45.103Z,101653.98
2018-11-27T08:17:50.687Z,101657.40
2018-11-27T08:18:56.243Z,101652.34
2018-11-27T08:20:01.711Z,101652.38
2018-11-27T08:21:07.484Z,101652.80
2018-11-27T08:22:13.108Z,101651.98
2018-11-27T08:23:18.691Z,101656.86
2018-11-27T08:24:24.217Z,101657.52
2018-11-27T08:25:29.719Z,101650.84
2018-11-27T08:26:35.225Z,101656.48
2018-11-27T08:27:40.700Z,101646.05
2018-11-27T08:28:46.139Z,101654.48
2018-11-27T08:29:51.741Z,101653.64
2018-11-27T08:30:57.303Z,101655.33
2018-11-27T08:32:03.011Z,101655.44
2018-11-27T08:33:08.707Z,101663.95
2018-11-27T08:34:14.161Z,101663.45
2018-11-27T08:35:22.388Z,101663.60
2018-11-27T08:36:28.018Z,101657.27
2018-11-27T08:37:33.664Z,101670.00
2018-11-27T08:38:39.147Z,101667.19
2018-11-27T08:39:44.623Z,101668.81
2018-11-27T08:40:50.082Z,101667.08
2018-11-27T08:41:55.603Z,101670.22
2018-11-27T08:43:01.164Z,101670.60
2018-11-27T08:44:06.901Z,101677.08
2018-11-27T08:45:18.964Z,101680.09
2018-11-27T08:46:24.435Z,101677.95
2018-11-27T08:47:29.879Z,101676.76
2018-11-27T08:48:35.582Z,101686.92
2018-11-27T08:49:41.109Z,101678.02
2018-11-27T08:50:46.605Z,101680.09
2018-11-27T08:51:52.092Z,101681.22
2018-11-27T08:53:01.355Z,101682.48
2018-11-27T08:54:07.596Z,101683.22
2018-11-27T08:55:16.059Z,101679.92
2018-11-27T08:56:21.583Z,101678.30
2018-11-27T08:57:27.068Z,101679.57
2018-11-27T08:58:32.611Z,101683.05
2018-11-27T08:59:38.293Z,101681.36
2018-11-27T09:00:43.889Z,101691.56
2018-11-27T09:01:49.423Z,101686.95
2018-11-27T09:02:54.940Z,101686.64
2018-11-27T09:04:00.495Z,101681.58
2018-11-27T09:05:06.569Z,101682.48
2018-11-27T09:06:12.123Z,101687.52
2018-11-27T09:07:17.613Z,101683.30
2018-11-27T09:08:23.219Z,101685.44
2018-11-27T09:09:28.734Z,101690.64
2018-11-27T09:10:34.436Z,101683.50
2018-11-27T09:11:39.913Z,101675.94
2018-11-27T09:12:45.427Z,101680.16
2018-11-27T09:13:51.098Z,101672.56
2018-11-27T09:14:56.611Z,101676.72
2018-11-27T09:16:02.213Z,101678.34
2018-11-27T09:17:08.406Z,101676.29
2018-11-27T09:18:28.399Z,101677.49
2018-11-27T09:19:33.905Z,101680.31
2018-11-27T09:20:39.392Z,101675.66
2018-11-27T09:21:45.043Z,101678.13
2018-11-27T09:22:50.583Z,101684.42
2018-11-27T09:23:56.147Z,101688.65
2018-11-27T09:25:01.700Z,101689.53
2018-11-27T09:26:07.743Z,101691.21
2018-11-27T09:27:13.247Z,101686.70
2018-11-27T09:28:18.871Z,101690.12
2018-11-27T09:29:24.807Z,101691.77
2018-11-27T09:30:29.988Z,101692.37
2018-11-27T09:31:35.468Z,101694.02
2018-11-27T09:32:41.014Z,101691.56
2018-11-27T09:33:46.476Z,101692.53
2018-11-27T09:34:52.025Z,101698.84
2018-11-27T09:35:57.912Z,101696.27
2018-11-27T09:37:03.485Z,101704.81
2018-11-27T09:38:09.808Z,101702.60
2018-11-27T09:39:15.448Z,101705.14
2018-11-27T09:40:21.619Z,101707.67
2018-11-27T09:41:27.176Z,101714.81
2018-11-27T09:42:32.712Z,101715.23
2018-11-27T09:43:38.319Z,101717.06
2018-11-27T09:44:43.844Z,101716.25
2018-11-27T09:45:50.356Z,101719.06
2018-11-27T09:46:55.842Z,101719.56
2018-11-27T09:48:01.655Z,101717.23
2018-11-27T09:49:08.326Z,101711.48
2018-11-27T09:50:14.984Z,101707.84
2018-11-27T09:51:20.529Z,101709.50
2018-11-27T09:52:26.068Z,101714.14
2018-11-27T09:53:31.643Z,101719.25
2018-11-27T09:54:37.132Z,101715.25
2018-11-27T09:55:42.573Z,101714.92
2018-11-27T09:56:47.972Z,101709.80
2018-11-27T09:57:58.780Z,101710.67
2018-11-27T09:58:59.050Z,101710.31
2018-11-27T10:00:05.428Z,101711.22
2018-11-27T10:01:11.009Z,101711.58
2018-11-27T10:02:16.520Z,101715.25
2018-11-27T10:03:21.990Z,101715.22
2018-11-27T10:04:27.545Z,101716.55
2018-11-27T10:05:33.128Z,101720.00
2018-11-27T10:06:38.635Z,101720.70
2018-11-27T10:07:44.251Z,101721.84
2018-11-27T10:08:49.676Z,101716.31
2018-11-27T10:09:55.290Z,101711.34
2018-11-27T10:11:00.976Z,101711.80
2018-11-27T10:12:06.940Z,101708.56
2018-11-27T10:13:12.523Z,101712.45
2018-11-27T10:14:18.061Z,101711.19
2018-11-27T10:15:28.196Z,101713.49
2018-11-27T10:16:33.687Z,101714.11
2018-11-27T10:17:39.158Z,101709.08
2018-11-27T10:18:44.900Z,101710.02
2018-11-27T10:19:50.307Z,101705.80
2018-11-27T10:20:55.770Z,101707.81
2018-11-27T10:22:01.274Z,101705.70
2018-11-27T10:23:12.723Z,101706.16
2018-11-27T10:24:18.470Z,101711.77
2018-11-27T10:25:23.996Z,101703.29
2018-11-27T10:26:29.569Z,101711.37
2018-11-27T10:27:35.174Z,101705.95
2018-11-27T10:28:40.746Z,101708.55
2018-11-27T10:29:46.283Z,101708.88
2018-11-27T10:30:51.765Z,101712.28
2018-11-27T10:31:57.263Z,101711.44
2018-11-27T10:33:02.850Z,101712.44
2018-11-27T10:34:08.495Z,101717.61
2018-11-27T10:35:18.084Z,101710.36
2018-11-27T10:36:23.525Z,101707.34
2018-11-27T10:37:29.043Z,101707.76
2018-11-27T10:38:34.635Z,101706.46
2018-11-27T10:39:40.190Z,101711.92
2018-11-27T10:40:46.373Z,101704.71
2018-11-27T10:41:51.932Z,101706.21
2018-11-27T10:42:57.474Z,101704.07
2018-11-27T10:44:03.011Z,101702.83
2018-11-27T10:45:14.736Z,101695.72
2018-11-27T10:46:20.331Z,101693.02
2018-11-27T10:47:25.887Z,101693.54
2018-11-27T10:48:31.449Z,101695.72
2018-11-27T10:49:38.144Z,101691.91
2018-11-27T10:50:42.616Z,101689.47
2018-11-27T10:51:48.260Z,101692.03
2018-11-27T10:52:56.628Z,101686.97
2018-11-27T10:54:02.016Z,101689.11
2018-11-27T10:55:10.355Z,101689.56
2018-11-27T10:56:15.891Z,101685.76
2018-11-27T10:57:21.459Z,101683.28
2018-11-27T10:58:26.948Z,101679.51
2018-11-27T10:59:32.462Z,101683.58
2018-11-27T11:00:44.877Z,101681.50
2018-11-27T11:01:54.070Z,101684.13
2018-11-27T11:03:05.799Z,101679.45
2018-11-27T11:04:11.275Z,101679.17
2018-11-27T11:05:16.927Z,101675.64
2018-11-27T11:06:22.407Z,101676.12
2018-11-27T11:07:27.876Z,101668.09
2018-11-27T11:08:33.351Z,101673.71
2018-11-27T11:09:38.927Z,101676.78
2018-11-27T11:10:44.364Z,101677.20
2018-11-27T11:11:49.777Z,101673.91
2018-11-27T11:12:55.310Z,101676.39
2018-11-27T11:14:01.112Z,101679.77
2018-11-27T11:15:08.151Z,101673.38
2018-11-27T11:16:13.610Z,101670.33
2018-11-27T11:17:19.074Z,101668.55
2018-11-27T11:18:24.595Z,101667.84
2018-11-27T11:19:30.208Z,101670.02
2018-11-27T11:20:35.729Z,101664.58
2018-11-27T11:21:41.220Z,101671.42
2018-11-27T11:22:46.765Z,101664.72
2018-11-27T11:23:52.260Z,101665.64
2018-11-27T11:24:57.995Z,101659.41
2018-11-27T11:26:03.557Z,101662.05
2018-11-27T11:27:09.105Z,101662.12
2018-11-27T11:28:14.693Z,101657.11
2018-11-27T11:29:20.335Z,101652.00
2018-11-27T11:30:25.889Z,101655.01
2018-11-27T11:31:31.407Z,101659.34
2018-11-27T11:32:37.187Z,101664.89
2018-11-27T11:33:42.695Z,101661.97
2018-11-27T11:34:48.119Z,101670.41
2018-11-27T11:35:53.664Z,101675.77
2018-11-27T11:36:59.165Z,101674.02
2018-11-27T11:38:04.863Z,101680.44
2018-11-27T11:39:11.592Z,101675.05
2018-11-27T11:40:18.847Z,101674.66
2018-11-27T11:41:24.439Z,101679.38
2018-11-27T11:42:29.934Z,101677.25
2018-11-27T11:43:35.803Z,101673.91
2018-11-27T11:44:41.297Z,101674.27
2018-11-27T11:45:46.736Z,101670.48
2018-11-27T11:46:52.289Z,101672.64
2018-11-27T11:47:57.806Z,101676.12
2018-11-27T11:49:03.284Z,101677.05
2018-11-27T11:50:18.432Z,101684.33
2018-11-27T11:51:24.010Z,101678.94
2018-11-27T11:52:29.572Z,101679.88
2018-11-27T11:53:34.982Z,101689.67
2018-11-27T11:54:40.908Z,101686.33
2018-11-27T11:55:47.610Z,101684.62
2018-11-27T11:56:53.099Z,101684.58
2018-11-27T11:57:59.055Z,101680.30
2018-11-27T11:59:04.796Z,101681.43
2018-11-27T12:00:26.895Z,101681.93
2018-11-27T12:01:32.415Z,101679.38
2018-11-27T12:02:37.931Z,101680.66
2018-11-27T12:03:43.515Z,101685.73
2018-11-27T12:04:49.053Z,101683.95
2018-11-27T12:05:54.736Z,101687.30
2018-11-27T12:07:00.499Z,101686.53
2018-11-27T12:08:08.125Z,101686.96
2018-11-27T12:09:13.644Z,101689.17
2018-11-27T12:10:19.077Z,101695.52
2018-11-27T12:11:24.655Z,101693.40
2018-11-27T12:12:30.157Z,101687.94
2018-11-27T12:13:35.699Z,101694.75
2018-11-27T12:14:41.119Z,101690.14
2018-11-27T12:15:46.559Z,101694.39
2018-11-27T12:16:52.266Z,101693.10
2018-11-27T12:17:57.784Z,101692.31
2018-11-27T12:19:03.491Z,101696.20
2018-11-27T12:20:12.365Z,101700.45
2018-11-27T12:21:17.877Z,101694.55
2018-11-27T12:22:23.319Z,101691.95
2018-11-27T12:23:28.819Z,101690.98
2018-11-27T12:24:34.327Z,101690.13
2018-11-27T12:25:40.959Z,101692.97
2018-11-27T12:26:46.580Z,101688.77
2018-11-27T12:27:52.047Z,101690.87
2018-11-27T12:28:57.706Z,101688.77
2018-11-27T12:30:03.247Z,101688.65
2018-11-27T12:31:08.887Z,101690.42
2018-11-27T12:32:14.404Z,101688.31